Time;durP1;ratioP1;P1;durP2;ratioP2;P2;SDS_P1;SDS_P2;PMS_P1;PMS_P2;Temp;Humidity;BMP_temperature;BMP_pressure;BME280_temperature;BME280_humidity;BME280_pressure;Samples;Min_cycle;Max_cycle;Signal;HPM_P1;HPM_P2
2021/12/31 00:00:09;;;;;;;18.00;3.63;;;12.90;99.90;;;;;;4842022;29;20117;-88
2021/12/31 00:02:34;;;;;;;19.75;3.58;;;12.80;99.90;;;;;;4842792;29;20165;-88
2021/12/31 00:05:00;;;;;;;18.58;4.13;;;12.80;99.90;;;;;;4842855;29;20074;-89
2021/12/31 00:07:25;;;;;;;13.93;3.47;;;12.80;99.90;;;;;;4841865;29;20045;-88
2021/12/31 00:09:51;;;;;;;14.57;4.22;;;12.70;99.90;;;;;;4843011;29;20057;-89
2021/12/31 00:12:17;;;;;;;20.00;4.40;;;12.80;99.90;;;;;;4840525;29;20042;-89
2021/12/31 00:14:42;;;;;;;24.83;4.30;;;12.80;99.90;;;;;;4850377;29;20049;-88
2021/12/31 00:17:08;;;;;;;20.33;4.68;;;12.80;99.90;;;;;;4842647;29;20037;-88
2021/12/31 00:19:39;;;;;;;17.38;4.60;;;12.80;99.90;;;;;;4842974;29;20049;-89
2021/12/31 00:22:33;;;;;;;14.88;4.03;;;12.80;99.90;;;;;;4842958;29;20048;-89
2021/12/31 00:24:52;;;;;;;18.98;4.20;;;12.80;99.90;;;;;;4842369;29;20053;-90
2021/12/31 00:27:17;;;;;;;24.67;4.35;;;12.80;99.90;;;;;;4835027;29;20136;-89
2021/12/31 00:29:43;;;;;;;18.23;4.00;;;12.90;99.90;;;;;;4826755;29;20049;-89
2021/12/31 00:32:09;;;;;;;12.82;3.42;;;12.90;99.90;;;;;;4842631;29;20101;-89
2021/12/31 00:34:34;;;;;;;12.77;4.00;;;12.80;99.90;;;;;;4842645;29;20519;-89
2021/12/31 00:37:00;;;;;;;16.20;5.65;;;12.90;99.90;;;;;;4842863;29;20184;-88
2021/12/31 00:39:25;;;;;;;17.58;3.67;;;12.90;99.90;;;;;;4842750;29;20053;-87
2021/12/31 00:41:51;;;;;;;15.75;4.28;;;12.90;99.90;;;;;;4841192;29;20062;-89
2021/12/31 00:44:17;;;;;;;19.90;4.70;;;12.80;99.90;;;;;;4841758;29;20042;-88
2021/12/31 00:46:42;;;;;;;17.35;4.53;;;12.80;99.90;;;;;;4842424;29;20042;-89
2021/12/31 00:49:08;;;;;;;17.30;3.95;;;12.80;99.90;;;;;;4842410;29;20050;-89
2021/12/31 00:51:35;;;;;;;18.13;4.38;;;12.80;99.90;;;;;;4850122;29;20403;-89
2021/12/31 00:54:00;;;;;;;16.75;4.25;;;12.90;99.90;;;;;;4842372;29;20552;-89
2021/12/31 00:56:26;;;;;;;16.88;4.57;;;12.90;99.90;;;;;;4842050;29;20042;-88
2021/12/31 00:58:52;;;;;;;19.10;4.28;;;12.90;99.90;;;;;;4826011;29;20049;-88
2021/12/31 01:01:20;;;;;;;19.23;4.63;;;12.90;99.90;;;;;;4841253;29;20052;-89
2021/12/31 01:03:47;;;;;;;22.90;4.25;;;12.90;99.90;;;;;;4841903;29;20625;-89
2021/12/31 01:06:13;;;;;;;14.07;4.40;;;12.90;99.90;;;;;;4841745;29;20094;-89
2021/12/31 01:08:39;;;;;;;15.75;4.40;;;12.90;99.90;;;;;;4841925;29;20057;-89
2021/12/31 01:11:05;;;;;;;19.98;5.25;;;12.90;99.90;;;;;;4841553;29;20445;-88
2021/12/31 01:13:36;;;;;;;25.88;5.05;;;12.90;99.90;;;;;;4845493;29;20049;-89
2021/12/31 01:16:04;;;;;;;19.13;4.93;;;12.90;99.90;;;;;;4841804;29;20093;-88
2021/12/31 01:21:22;;;;;;;19.98;4.80;;;12.90;99.90;;;;;;4834134;29;20101;-89
2021/12/31 01:23:49;;;;;;;16.17;4.13;;;12.90;99.90;;;;;;4841156;29;20477;-88
2021/12/31 01:26:15;;;;;;;20.67;4.90;;;13.00;99.90;;;;;;4841278;29;20072;-89
2021/12/31 01:28:40;;;;;;;12.98;4.65;;;13.00;99.90;;;;;;4841417;29;20053;-89
2021/12/31 01:31:06;;;;;;;18.23;4.60;;;12.90;99.90;;;;;;4841854;29;20770;-89
2021/12/31 01:33:32;;;;;;;21.20;5.75;;;12.90;99.90;;;;;;4841337;29;20044;-89
2021/12/31 01:35:57;;;;;;;18.85;4.57;;;12.90;99.90;;;;;;4841018;29;20080;-89
2021/12/31 01:38:23;;;;;;;15.60;5.25;;;12.90;99.90;;;;;;4826263;29;20098;-88
2021/12/31 01:40:50;;;;;;;19.73;5.10;;;13.00;99.90;;;;;;4840744;29;20057;-88
2021/12/31 01:43:17;;;;;;;18.30;4.65;;;12.90;99.90;;;;;;4841415;29;20053;-89
2021/12/31 01:45:46;;;;;;;17.70;5.35;;;12.90;99.90;;;;;;4840609;29;20041;-89
2021/12/31 01:50:52;;;;;;;18.20;5.25;;;13.00;99.90;;;;;;4841164;29;20101;-89
2021/12/31 01:53:22;;;;;;;18.83;4.57;;;13.00;99.90;;;;;;4841296;29;20048;-89
2021/12/31 01:55:50;;;;;;;14.07;4.80;;;13.00;99.90;;;;;;4834237;29;20054;-89
2021/12/31 01:58:20;;;;;;;20.25;4.30;;;12.90;99.90;;;;;;4840203;29;20496;-89
2021/12/31 02:00:46;;;;;;;14.25;4.30;;;13.00;99.90;;;;;;4840481;29;20049;-88
2021/12/31 02:03:12;;;;;;;19.77;4.38;;;13.00;99.90;;;;;;4840946;29;20048;-88
2021/12/31 02:05:38;;;;;;;17.17;4.85;;;12.90;99.90;;;;;;4840277;29;20080;-88
2021/12/31 02:08:04;;;;;;;13.98;4.25;;;12.90;99.90;;;;;;4825535;29;20094;-88
2021/12/31 02:10:30;;;;;;;17.05;4.47;;;12.90;99.90;;;;;;4840765;29;20088;-89
2021/12/31 02:12:57;;;;;;;16.90;4.78;;;13.00;99.90;;;;;;4840593;29;20045;-88
2021/12/31 02:15:24;;;;;;;14.45;4.72;;;13.00;99.90;;;;;;4840860;29;20049;-88
2021/12/31 02:17:50;;;;;;;18.60;5.05;;;12.90;99.90;;;;;;4840454;29;20568;-88
2021/12/31 02:20:18;;;;;;;14.40;5.10;;;12.90;99.90;;;;;;4840747;29;20041;-89
2021/12/31 02:22:51;;;;;;;13.82;4.63;;;12.90;99.90;;;;;;4840502;29;20178;-89
2021/12/31 02:25:19;;;;;;;17.42;5.80;;;12.90;99.90;;;;;;4840483;29;20140;-89
2021/12/31 02:27:44;;;;;;;15.07;5.18;;;12.90;99.90;;;;;;4833027;29;20101;-89
2021/12/31 02:30:11;;;;;;;13.77;5.60;;;13.00;99.90;;;;;;4840340;29;20085;-89
2021/12/31 02:32:38;;;;;;;19.08;6.25;;;13.00;99.90;;;;;;4840005;29;20515;-88
2021/12/31 02:35:06;;;;;;;13.00;5.25;;;13.00;99.90;;;;;;4840102;29;20042;-89
2021/12/31 02:37:32;;;;;;;15.00;5.97;;;13.00;99.90;;;;;;4840211;29;20037;-88
2021/12/31 02:39:58;;;;;;;16.55;5.65;;;13.00;99.90;;;;;;4839729;29;20083;-88
2021/12/31 02:42:24;;;;;;;16.15;6.30;;;13.00;99.90;;;;;;4840026;29;20133;-89
2021/12/31 02:44:51;;;;;;;12.25;5.95;;;13.10;99.90;;;;;;4839979;29;20484;-89
2021/12/31 02:47:16;;;;;;;15.70;6.72;;;13.00;99.90;;;;;;4848858;29;20140;-88
2021/12/31 02:49:44;;;;;;;11.35;6.00;;;13.00;99.90;;;;;;4841538;29;20153;-88
2021/12/31 02:52:12;;;;;;;15.05;6.65;;;13.00;99.90;;;;;;4848426;29;20037;-88
2021/12/31 02:54:43;;;;;;;13.63;6.60;;;12.90;99.90;;;;;;4839764;29;20046;-88
2021/12/31 02:57:09;;;;;;;17.60;8.23;;;13.00;99.90;;;;;;4840169;29;20839;-88
2021/12/31 02:59:35;;;;;;;16.05;7.70;;;13.00;99.90;;;;;;4840817;29;20560;-88
2021/12/31 03:02:03;;;;;;;13.43;8.07;;;13.10;99.90;;;;;;4832711;29;20054;-88
2021/12/31 03:04:30;;;;;;;14.85;8.07;;;13.00;99.90;;;;;;4840093;29;20504;-89
2021/12/31 03:06:57;;;;;;;17.63;8.93;;;13.10;99.90;;;;;;4839553;29;20061;-87
2021/12/31 03:09:25;;;;;;;16.88;8.43;;;13.00;99.90;;;;;;4839996;29;20045;-87
2021/12/31 03:11:54;;;;;;;15.45;9.20;;;13.00;99.90;;;;;;4839806;29;20050;-88
2021/12/31 03:14:21;;;;;;;17.38;8.65;;;13.10;99.90;;;;;;4840233;29;20496;-88
2021/12/31 03:16:47;;;;;;;16.88;9.50;;;13.10;99.90;;;;;;4840347;29;20045;-88
2021/12/31 03:19:13;;;;;;;16.83;9.20;;;13.10;99.90;;;;;;4843629;29;20055;-88
2021/12/31 03:21:39;;;;;;;22.27;8.60;;;13.10;99.90;;;;;;4827215;29;20412;-89
2021/12/31 03:24:05;;;;;;;19.58;10.15;;;13.20;99.90;;;;;;4843356;29;20045;-88
2021/12/31 03:26:31;;;;;;;21.08;10.10;;;13.20;99.90;;;;;;4843510;29;20049;-89
2021/12/31 03:28:56;;;;;;;14.50;10.35;;;13.20;99.90;;;;;;4828041;29;20094;-89
2021/12/31 03:31:22;;;;;;;19.10;10.18;;;13.20;99.90;;;;;;4828615;29;20037;-89
2021/12/31 03:33:47;;;;;;;15.07;9.60;;;13.20;99.90;;;;;;4828278;29;20049;-89
2021/12/31 03:36:13;;;;;;;14.98;9.57;;;13.20;99.90;;;;;;4842939;29;20132;-89
2021/12/31 03:38:39;;;;;;;16.85;9.05;;;13.20;99.90;;;;;;4843214;29;20049;-89
2021/12/31 03:41:04;;;;;;;16.73;9.07;;;13.20;99.90;;;;;;4843296;29;20088;-88
2021/12/31 03:43:30;;;;;;;15.07;8.13;;;13.20;99.90;;;;;;4843891;29;20050;-89
2021/12/31 03:45:55;;;;;;;17.63;8.00;;;13.20;99.90;;;;;;4828115;29;20042;-89
2021/12/31 03:48:21;;;;;;;16.55;8.07;;;13.20;99.90;;;;;;4843203;29;20041;-89
2021/12/31 03:50:47;;;;;;;14.43;8.40;;;13.20;99.90;;;;;;4842678;29;20135;-89
2021/12/31 03:53:14;;;;;;;14.75;8.05;;;13.20;99.90;;;;;;4843412;29;20125;-90
2021/12/31 03:55:40;;;;;;;13.70;7.93;;;13.20;99.90;;;;;;4843277;29;20111;-89
2021/12/31 03:58:06;;;;;;;17.83;8.20;;;13.20;99.90;;;;;;4843610;29;20104;-88
2021/12/31 04:00:32;;;;;;;19.55;8.60;;;13.20;99.90;;;;;;4843110;29;20045;-89
2021/12/31 04:03:04;;;;;;;15.13;7.93;;;13.20;99.90;;;;;;4850628;29;20048;-89
2021/12/31 04:05:29;;;;;;;21.38;9.23;;;13.20;99.90;;;;;;4845752;29;20530;-90
2021/12/31 04:07:55;;;;;;;14.45;8.60;;;13.20;99.90;;;;;;4842891;29;20049;-89
2021/12/31 04:10:23;;;;;;;19.25;9.02;;;13.20;99.90;;;;;;4842908;29;20053;-89
2021/12/31 04:12:48;;;;;;;16.27;8.75;;;13.10;99.90;;;;;;4842461;29;20042;-88
2021/12/31 04:15:14;;;;;;;20.20;9.30;;;13.10;99.90;;;;;;4842769;29;20052;-89
2021/12/31 04:17:40;;;;;;;15.55;9.07;;;13.10;99.90;;;;;;4842847;29;20045;-88
2021/12/31 04:20:10;;;;;;;20.65;9.90;;;13.10;99.90;;;;;;4842000;29;20492;-88
2021/12/31 04:22:37;;;;;;;18.45;9.57;;;13.10;99.90;;;;;;4826641;29;20132;-89
2021/12/31 04:25:03;;;;;;;16.25;10.00;;;13.00;99.90;;;;;;4842353;29;20440;-88
2021/12/31 04:27:28;;;;;;;17.38;9.68;;;13.10;99.90;;;;;;4842261;29;20133;-89
2021/12/31 04:29:54;;;;;;;18.98;10.32;;;13.10;99.90;;;;;;4842129;29;20481;-89
2021/12/31 04:32:21;;;;;;;17.98;10.07;;;13.10;99.90;;;;;;4842647;29;20496;-90
2021/12/31 04:34:47;;;;;;;16.20;10.15;;;13.10;99.90;;;;;;4827147;29;20040;-88
2021/12/31 04:37:13;;;;;;;18.60;10.65;;;13.10;99.90;;;;;;4842024;29;20494;-88
2021/12/31 04:39:39;;;;;;;14.38;9.85;;;13.00;99.90;;;;;;4842560;29;20189;-88
2021/12/31 04:42:05;;;;;;;17.58;10.15;;;13.10;99.90;;;;;;4842016;29;20713;-89
2021/12/31 04:44:31;;;;;;;21.92;9.05;;;13.10;99.90;;;;;;4827096;29;20049;-89
2021/12/31 04:46:56;;;;;;;15.70;8.88;;;13.10;99.90;;;;;;4850295;29;20070;-88
2021/12/31 04:49:22;;;;;;;18.08;9.25;;;13.10;99.90;;;;;;4841916;29;20048;-88
2021/12/31 04:51:48;;;;;;;18.73;9.00;;;13.10;99.90;;;;;;4841869;29;20041;-88
2021/12/31 04:54:15;;;;;;;16.05;9.05;;;13.10;99.90;;;;;;4842043;29;20101;-88
2021/12/31 04:56:43;;;;;;;16.85;8.93;;;13.10;99.90;;;;;;4841893;29;20056;-89
2021/12/31 04:59:09;;;;;;;15.88;8.50;;;13.10;99.90;;;;;;4848330;29;20088;-89
2021/12/31 05:01:35;;;;;;;20.58;8.50;;;13.20;99.90;;;;;;4849832;29;20074;-88
2021/12/31 05:04:01;;;;;;;14.38;8.13;;;13.10;99.90;;;;;;4841183;29;20056;-88
2021/12/31 05:06:27;;;;;;;15.93;7.60;;;13.10;99.90;;;;;;4841005;29;20042;-89
2021/12/31 05:08:52;;;;;;;16.88;7.75;;;13.10;99.90;;;;;;4841409;29;20068;-89
2021/12/31 05:11:18;;;;;;;19.30;8.25;;;13.20;99.90;;;;;;4842030;29;20037;-88
2021/12/31 05:13:44;;;;;;;15.35;6.75;;;13.20;99.90;;;;;;4841106;29;20045;-88
2021/12/31 05:16:09;;;;;;;13.20;6.30;;;13.20;99.90;;;;;;4841247;29;20041;-89
2021/12/31 05:18:35;;;;;;;13.90;6.65;;;13.10;99.90;;;;;;4841499;29;20466;-88
2021/12/31 05:21:00;;;;;;;13.13;6.00;;;13.10;99.90;;;;;;4840963;29;20053;-89
2021/12/31 05:23:26;;;;;;;9.85;4.95;;;13.10;99.90;;;;;;4841693;29;20102;-89
2021/12/31 05:25:51;;;;;;;11.93;5.80;;;13.20;99.90;;;;;;4841568;29;20469;-89
2021/12/31 05:28:18;;;;;;;16.02;6.00;;;13.20;99.90;;;;;;4842105;29;20070;-89
2021/12/31 05:30:43;;;;;;;10.50;5.45;;;13.20;99.90;;;;;;4825926;29;20049;-88
2021/12/31 05:33:09;;;;;;;12.43;5.70;;;13.10;99.90;;;;;;4841027;29;20781;-88
2021/12/31 05:35:34;;;;;;;13.48;6.13;;;13.10;99.90;;;;;;4841631;29;20053;-89
2021/12/31 05:38:00;;;;;;;11.10;6.13;;;13.20;99.90;;;;;;4840239;29;20061;-88
2021/12/31 05:40:26;;;;;;;14.18;5.70;;;13.20;99.90;;;;;;4839810;29;20086;-87
2021/12/31 05:42:52;;;;;;;12.10;4.93;;;13.20;99.90;;;;;;4841265;29;20053;-89
2021/12/31 05:45:18;;;;;;;13.15;5.18;;;13.20;99.90;;;;;;4841225;29;20042;-88
2021/12/31 05:47:43;;;;;;;11.82;5.20;;;13.20;99.90;;;;;;4840841;29;20100;-88
2021/12/31 05:50:19;;;;;;;9.13;4.68;;;13.20;99.90;;;;;;4840824;29;20713;-87
2021/12/31 05:52:46;;;;;;;13.38;4.78;;;13.10;99.90;;;;;;4840115;29;20046;-89
2021/12/31 05:55:12;;;;;;;10.02;4.45;;;13.20;99.90;;;;;;4840373;29;20041;-88
2021/12/31 05:57:37;;;;;;;8.52;4.63;;;13.10;99.90;;;;;;4826409;29;20054;-89
2021/12/31 06:00:03;;;;;;;9.73;4.57;;;13.20;99.90;;;;;;4840214;29;20050;-89
2021/12/31 06:02:29;;;;;;;9.75;4.25;;;13.00;99.90;;;;;;4839907;29;20133;-89
2021/12/31 06:04:54;;;;;;;10.57;4.63;;;13.00;99.90;;;;;;4848362;29;20106;-88
2021/12/31 06:07:20;;;;;;;8.65;4.18;;;13.00;99.90;;;;;;4825868;29;20125;-89
2021/12/31 06:09:46;;;;;;;10.75;4.88;;;13.00;99.90;;;;;;4840409;29;20049;-88
2021/12/31 06:12:12;;;;;;;9.57;4.60;;;12.80;99.90;;;;;;4825733;29;20048;-88
2021/12/31 06:14:37;;;;;;;7.45;3.88;;;12.70;99.90;;;;;;4840706;29;20110;-88
2021/12/31 06:17:07;;;;;;;11.80;4.63;;;12.70;99.90;;;;;;4836644;29;20081;-88
2021/12/31 06:19:33;;;;;;;13.10;5.10;;;12.70;99.90;;;;;;4840650;29;20049;-88
2021/12/31 06:21:59;;;;;;;8.95;4.25;;;12.70;99.90;;;;;;4824874;29;20038;-87
2021/12/31 06:24:25;;;;;;;11.13;4.95;;;12.70;99.90;;;;;;4840027;29;20052;-88
2021/12/31 06:26:50;;;;;;;11.35;4.97;;;12.70;99.90;;;;;;4839881;29;20506;-88
2021/12/31 06:29:16;;;;;;;13.98;6.50;;;12.80;99.90;;;;;;4840159;29;20512;-87
2021/12/31 06:31:41;;;;;;;7.55;4.43;;;12.80;99.90;;;;;;4824701;29;20408;-88
2021/12/31 06:34:07;;;;;;;9.80;5.18;;;12.80;99.90;;;;;;4840460;29;20045;-88
2021/12/31 06:36:33;;;;;;;7.13;4.50;;;12.80;99.90;;;;;;4840130;29;20117;-88
2021/12/31 06:39:02;;;;;;;6.85;3.83;;;12.80;99.90;;;;;;4840107;29;20136;-88
2021/12/31 06:41:27;;;;;;;7.78;3.80;;;12.70;99.90;;;;;;4839874;29;20049;-88
2021/12/31 06:43:53;;;;;;;8.15;4.32;;;12.80;99.90;;;;;;4839411;29;20052;-88
2021/12/31 06:46:20;;;;;;;8.05;4.10;;;12.70;99.90;;;;;;4839620;29;20041;-88
2021/12/31 06:48:46;;;;;;;8.82;3.97;;;12.70;99.90;;;;;;4840006;29;20101;-88
2021/12/31 06:51:12;;;;;;;8.20;4.63;;;12.70;99.90;;;;;;4827791;29;20064;-89
2021/12/31 06:53:38;;;;;;;9.23;4.53;;;12.60;99.90;;;;;;4846002;29;20080;-89
2021/12/31 06:56:04;;;;;;;10.18;4.63;;;12.50;99.90;;;;;;4854733;29;20041;-89
2021/12/31 06:58:30;;;;;;;10.95;4.70;;;12.50;99.90;;;;;;4831152;29;20050;-88
2021/12/31 07:00:55;;;;;;;8.43;4.60;;;12.40;99.90;;;;;;4829380;29;20041;-88
2021/12/31 07:03:21;;;;;;;10.15;4.15;;;12.50;99.90;;;;;;4845144;29;20056;-88
2021/12/31 07:05:46;;;;;;;12.77;5.00;;;12.40;99.90;;;;;;4829666;29;20042;-88
2021/12/31 07:08:13;;;;;;;7.97;4.07;;;12.40;99.90;;;;;;4829585;29;20041;-88
2021/12/31 07:10:39;;;;;;;9.93;4.28;;;12.40;99.90;;;;;;4840704;29;20053;-87
2021/12/31 07:13:10;;;;;;;8.32;4.18;;;12.40;99.90;;;;;;4829334;29;20045;-89
2021/12/31 07:15:48;;;;;;;11.57;4.57;;;12.50;99.90;;;;;;4835618;29;20516;-88
2021/12/31 07:18:14;;;;;;;9.27;4.47;;;12.40;99.90;;;;;;4839878;29;20060;-89
2021/12/31 07:20:40;;;;;;;7.30;4.15;;;12.40;99.90;;;;;;4832343;29;20101;-88
2021/12/31 07:23:11;;;;;;;12.80;4.30;;;12.40;99.90;;;;;;4831324;29;20045;-89
2021/12/31 07:25:38;;;;;;;11.57;4.72;;;12.40;99.90;;;;;;4846154;29;20060;-89
2021/12/31 07:28:05;;;;;;;8.57;4.55;;;12.30;99.90;;;;;;4845248;29;20045;-89
2021/12/31 07:30:30;;;;;;;8.23;4.75;;;12.30;99.90;;;;;;4845660;29;20079;-90
2021/12/31 07:32:56;;;;;;;9.25;4.78;;;12.30;99.90;;;;;;4829756;29;20046;-89
2021/12/31 07:35:22;;;;;;;11.18;5.18;;;12.30;99.90;;;;;;4834721;29;20432;-88
2021/12/31 07:37:47;;;;;;;7.35;4.25;;;12.30;99.90;;;;;;4842414;29;20053;-88
2021/12/31 07:40:13;;;;;;;9.07;4.45;;;12.30;99.90;;;;;;4838388;29;20121;-89
2021/12/31 07:42:39;;;;;;;8.88;3.97;;;12.20;99.90;;;;;;4845611;29;20137;-88
2021/12/31 07:45:06;;;;;;;12.10;4.53;;;12.20;99.90;;;;;;4844645;29;20045;-90
2021/12/31 07:47:32;;;;;;;11.27;4.60;;;12.20;99.90;;;;;;4830773;29;20076;-89
2021/12/31 07:49:57;;;;;;;8.25;4.38;;;12.20;99.90;;;;;;4840418;29;20086;-88
2021/12/31 07:52:23;;;;;;;9.00;4.40;;;12.20;99.90;;;;;;4842219;29;20045;-90
2021/12/31 07:54:49;;;;;;;11.77;5.05;;;12.20;99.90;;;;;;4819956;29;20077;-90
2021/12/31 07:57:15;;;;;;;9.43;4.65;;;12.20;99.90;;;;;;4829813;29;20045;-91
2021/12/31 07:59:40;;;;;;;11.43;4.93;;;12.20;99.90;;;;;;4829738;29;20106;-90
2021/12/31 08:02:06;;;;;;;10.77;4.90;;;12.20;99.90;;;;;;4857774;29;20042;-90
2021/12/31 08:04:33;;;;;;;8.80;4.07;;;12.20;99.90;;;;;;4851329;29;20053;-92
2021/12/31 08:06:58;;;;;;;10.23;4.63;;;12.20;99.90;;;;;;4850046;29;20077;-89
2021/12/31 08:09:24;;;;;;;9.85;4.50;;;12.20;99.90;;;;;;4827330;29;20080;-88
2021/12/31 08:11:49;;;;;;;10.80;5.03;;;12.20;99.90;;;;;;4828249;29;20128;-89
2021/12/31 08:14:15;;;;;;;8.13;4.75;;;12.20;99.90;;;;;;4844285;29;20045;-90
2021/12/31 08:16:41;;;;;;;9.90;4.20;;;12.30;99.90;;;;;;4843681;29;20056;-90
2021/12/31 08:19:08;;;;;;;7.78;4.68;;;12.30;99.90;;;;;;4828021;29;20424;-89
2021/12/31 08:21:34;;;;;;;10.30;4.95;;;12.30;99.90;;;;;;4830419;29;20045;-90
2021/12/31 08:23:59;;;;;;;10.20;4.57;;;12.30;99.90;;;;;;4843187;29;20038;-90
2021/12/31 08:26:25;;;;;;;8.88;4.70;;;12.30;99.90;;;;;;4842564;29;20045;-92
2021/12/31 08:28:51;;;;;;;9.48;4.30;;;12.50;99.90;;;;;;4847072;29;20045;-91
2021/12/31 08:31:16;;;;;;;9.40;4.50;;;12.70;99.90;;;;;;4847824;29;20046;-91
2021/12/31 08:33:42;;;;;;;8.15;4.25;;;12.60;99.90;;;;;;4846416;29;20065;-91
2021/12/31 08:36:08;;;;;;;10.23;4.93;;;12.50;99.90;;;;;;4833198;29;20033;-91
2021/12/31 08:38:33;;;;;;;7.60;4.07;;;12.70;99.90;;;;;;4854214;29;20049;-89
2021/12/31 08:41:01;;;;;;;10.02;4.40;;;12.70;99.90;;;;;;4826276;29;20061;-90
2021/12/31 08:43:27;;;;;;;11.00;4.90;;;12.80;99.90;;;;;;4842271;29;20113;-92
2021/12/31 08:45:53;;;;;;;16.55;4.55;;;12.80;99.90;;;;;;4838780;29;20076;-91
2021/12/31 08:48:18;;;;;;;7.70;4.35;;;12.80;99.90;;;;;;4827361;29;20409;-90
2021/12/31 08:50:44;;;;;;;17.60;4.45;;;12.90;99.90;;;;;;4841852;29;20045;-89
2021/12/31 08:53:09;;;;;;;7.75;4.10;;;12.90;99.90;;;;;;4826946;29;20128;-89
2021/12/31 08:55:35;;;;;;;10.15;4.38;;;12.90;99.90;;;;;;4842296;29;20049;-90
2021/12/31 08:58:01;;;;;;;9.30;4.50;;;12.90;99.90;;;;;;4842151;29;20173;-90
2021/12/31 09:00:27;;;;;;;8.60;4.00;;;13.00;99.90;;;;;;4835023;29;20061;-88
2021/12/31 09:02:52;;;;;;;7.28;4.20;;;12.90;99.90;;;;;;4841783;29;20465;-89
2021/12/31 09:05:18;;;;;;;10.40;4.10;;;12.90;99.90;;;;;;4827315;29;20052;-89
2021/12/31 09:07:44;;;;;;;9.52;4.10;;;12.90;99.90;;;;;;4826619;29;20042;-88
2021/12/31 09:10:10;;;;;;;11.68;4.68;;;13.00;99.90;;;;;;4841450;29;20049;-91
2021/12/31 09:12:37;;;;;;;10.10;4.38;;;13.00;99.90;;;;;;4843068;29;20468;-89
2021/12/31 09:15:03;;;;;;;11.55;4.93;;;13.00;99.90;;;;;;4846146;29;20080;-90
2021/12/31 09:17:29;;;;;;;9.88;4.28;;;13.00;99.90;;;;;;4843029;29;20080;-90
2021/12/31 09:19:54;;;;;;;4.78;3.75;;;13.10;99.90;;;;;;4841547;29;20492;-90
2021/12/31 09:22:20;;;;;;;8.00;4.53;;;13.00;99.90;;;;;;4842149;29;20072;-91
2021/12/31 09:24:48;;;;;;;10.25;4.57;;;13.00;99.90;;;;;;4849186;29;20041;-90
2021/12/31 09:27:13;;;;;;;8.07;4.13;;;13.00;99.90;;;;;;4842340;29;20070;-90
2021/12/31 09:29:39;;;;;;;12.52;5.40;;;13.00;99.90;;;;;;4841482;29;20053;-89
2021/12/31 09:32:05;;;;;;;11.07;4.93;;;13.00;99.90;;;;;;4840696;29;20049;-91
2021/12/31 09:34:31;;;;;;;11.23;4.63;;;13.00;99.90;;;;;;4843737;29;20056;-90
2021/12/31 09:36:56;;;;;;;11.25;4.78;;;13.00;99.90;;;;;;4841294;29;20041;-90
2021/12/31 09:39:22;;;;;;;6.57;4.35;;;13.00;99.90;;;;;;4841249;29;20582;-90
2021/12/31 09:41:48;;;;;;;8.73;4.28;;;13.10;99.90;;;;;;4841034;29;20473;-90
2021/12/31 09:44:15;;;;;;;8.85;4.60;;;13.10;99.90;;;;;;4849245;29;20076;-90
2021/12/31 09:46:44;;;;;;;8.80;4.68;;;13.10;99.90;;;;;;4841313;29;20101;-91
2021/12/31 09:49:09;;;;;;;11.75;5.07;;;13.20;99.90;;;;;;4841432;29;20105;-89
2021/12/31 09:51:39;;;;;;;11.35;5.25;;;13.10;99.90;;;;;;4841724;29;20141;-90
2021/12/31 09:54:05;;;;;;;8.35;4.43;;;13.00;99.90;;;;;;4841138;29;20081;-90
2021/12/31 09:56:34;;;;;;;12.45;4.70;;;13.10;99.90;;;;;;4841664;29;20084;-90
2021/12/31 09:59:00;;;;;;;9.43;4.88;;;13.10;99.90;;;;;;4840693;29;20093;-89
2021/12/31 10:01:25;;;;;;;7.38;4.93;;;13.10;99.90;;;;;;4841216;29;20444;-89
2021/12/31 10:04:00;;;;;;;8.63;5.18;;;13.10;99.90;;;;;;4840528;29;20053;-89
2021/12/31 10:06:26;;;;;;;9.23;4.88;;;13.10;99.90;;;;;;4841035;29;20105;-89
2021/12/31 10:08:53;;;;;;;6.53;4.43;;;13.10;99.90;;;;;;4839325;29;20045;-90
2021/12/31 10:11:21;;;;;;;12.15;5.53;;;13.10;99.90;;;;;;4841430;29;20073;-88
2021/12/31 10:13:54;;;;;;;12.13;5.32;;;13.10;99.90;;;;;;4840669;29;20056;-89
2021/12/31 10:16:36;;;;;;;;;;;13.10;99.90;;;;;;4841592;29;20465;-88
2021/12/31 10:19:09;;;;;;;8.85;5.20;;;13.00;99.90;;;;;;4840816;29;19948;-90
2021/12/31 10:21:46;;;;;;;8.05;4.65;;;13.10;99.90;;;;;;4841073;29;20115;-90
2021/12/31 10:24:22;;;;;;;12.60;5.07;;;13.10;99.90;;;;;;4840706;29;20093;-90
2021/12/31 10:26:49;;;;;;;12.00;5.72;;;13.20;99.90;;;;;;4840490;29;20076;-89
2021/12/31 10:29:14;;;;;;;9.27;4.85;;;13.20;99.90;;;;;;4825717;29;20123;-90
2021/12/31 10:31:45;;;;;;;10.32;4.65;;;13.20;99.90;;;;;;4840930;29;20045;-90
2021/12/31 10:34:38;;;;;;;9.85;5.28;;;13.10;99.90;;;;;;4840525;29;20089;-90
2021/12/31 10:37:14;;;;;;;14.27;5.13;;;13.20;99.90;;;;;;4840149;29;20211;-88
2021/12/31 10:39:44;;;;;;;7.63;4.35;;;13.10;99.90;;;;;;4840700;29;20321;-89
2021/12/31 10:42:14;;;;;;;9.32;5.20;;;13.20;99.90;;;;;;4837353;29;20058;-90
2021/12/31 10:44:49;;;;;;;11.52;4.90;;;13.10;99.90;;;;;;4838053;29;20046;-89
2021/12/31 10:47:23;;;;;;;10.07;4.90;;;13.20;99.90;;;;;;4829832;29;20110;-90
2021/12/31 10:50:04;;;;;;;9.68;5.03;;;13.10;99.90;;;;;;4837591;29;20049;-89
2021/12/31 10:52:34;;;;;;;10.60;5.45;;;13.10;99.90;;;;;;4836983;29;20058;-89
2021/12/31 10:55:04;;;;;;;8.45;4.97;;;13.10;99.90;;;;;;4837147;29;20118;-90
2021/12/31 10:57:37;;;;;;;10.88;5.32;;;13.20;99.90;;;;;;4821146;29;20042;-90
2021/12/31 11:00:08;;;;;;;15.45;5.60;;;13.10;99.90;;;;;;4822794;29;20045;-89
2021/12/31 11:02:35;;;;;;;9.68;5.30;;;13.10;99.90;;;;;;4837524;29;20042;-90
2021/12/31 11:05:01;;;;;;;11.93;5.50;;;13.10;99.90;;;;;;4838066;29;20539;-89
2021/12/31 11:07:30;;;;;;;12.20;6.30;;;13.00;99.90;;;;;;4838099;29;20041;-88
2021/12/31 11:10:00;;;;;;;8.05;5.15;;;12.90;99.90;;;;;;4834088;29;20109;-88
2021/12/31 11:12:27;;;;;;;12.07;6.00;;;12.90;99.90;;;;;;4838226;29;20117;-88
2021/12/31 11:14:53;;;;;;;13.73;6.30;;;12.80;99.90;;;;;;4839952;29;20046;-88
2021/12/31 11:17:20;;;;;;;11.40;5.75;;;12.90;99.90;;;;;;4839401;29;20439;-89
2021/12/31 11:19:48;;;;;;;15.13;6.22;;;12.80;99.90;;;;;;4836635;29;20075;-88
2021/12/31 11:22:15;;;;;;;10.93;6.00;;;12.70;99.90;;;;;;4841159;29;20145;-89
2021/12/31 11:24:40;;;;;;;12.10;6.50;;;12.70;99.90;;;;;;4837129;29;20107;-88
2021/12/31 11:27:29;;;;;;;13.80;6.95;;;12.70;99.90;;;;;;4837335;29;20049;-89
2021/12/31 11:29:55;;;;;;;14.23;6.63;;;12.70;99.90;;;;;;4830312;29;20408;-88
2021/12/31 11:32:59;;;;;;;14.95;7.18;;;12.60;99.90;;;;;;4838725;29;20106;-88
2021/12/31 11:35:55;;;;;;;14.77;7.38;;;12.60;99.90;;;;;;4843061;29;20132;-88
2021/12/31 11:38:20;;;;;;;13.60;7.45;;;12.50;99.90;;;;;;4834888;29;20535;-88
2021/12/31 11:40:51;;;;;;;12.73;7.18;;;12.60;99.90;;;;;;4840314;29;20054;-89
2021/12/31 11:43:19;;;;;;;14.15;6.95;;;12.60;99.90;;;;;;4841690;29;20517;-89
2021/12/31 11:46:11;;;;;;;17.67;7.57;;;12.60;99.90;;;;;;4840795;29;20066;-89
2021/12/31 11:51:12;;;;;;;13.75;7.70;;;12.60;99.90;;;;;;4840693;29;20140;-87
2021/12/31 11:53:55;;;;;;;16.13;7.18;;;12.60;99.90;;;;;;4842915;29;20049;-89
2021/12/31 11:56:36;;;;;;;13.18;7.72;;;12.50;99.90;;;;;;4843906;29;20050;-89
2021/12/31 11:59:07;;;;;;;15.15;7.22;;;12.50;99.90;;;;;;4834721;29;20101;-89
2021/12/31 12:01:39;;;;;;;14.98;7.80;;;12.50;99.90;;;;;;4843311;29;20493;-89
2021/12/31 12:04:28;;;;;;;14.32;7.50;;;12.40;99.90;;;;;;4839817;29;20120;-88
2021/12/31 12:07:04;;;;;;;13.18;7.40;;;12.50;99.90;;;;;;4839891;29;20042;-89
2021/12/31 12:09:35;;;;;;;14.75;8.05;;;12.50;99.90;;;;;;4844574;29;20064;-89
2021/12/31 12:12:01;;;;;;;14.70;7.68;;;12.60;99.90;;;;;;4839996;29;20493;-89
2021/12/31 12:14:30;;;;;;;15.15;7.95;;;12.60;99.90;;;;;;4839791;29;20074;-90
2021/12/31 12:16:57;;;;;;;16.15;7.63;;;12.50;99.90;;;;;;4839310;29;20052;-89
2021/12/31 12:19:32;;;;;;;16.15;8.32;;;12.50;99.90;;;;;;4839763;29;20550;-89
2021/12/31 12:21:58;;;;;;;17.88;8.85;;;12.40;99.90;;;;;;4839780;29;20073;-90
2021/12/31 12:24:24;;;;;;;18.60;8.88;;;12.40;99.90;;;;;;4840165;29;20496;-89
2021/12/31 12:26:49;;;;;;;20.13;8.57;;;12.30;99.90;;;;;;4839373;29;20079;-89
2021/12/31 12:29:25;;;;;;;17.55;8.65;;;12.40;99.90;;;;;;4839253;29;20067;-90
2021/12/31 12:32:11;;;;;;;20.60;9.27;;;12.40;99.90;;;;;;4839451;29;20054;-90
2021/12/31 12:34:36;;;;;;;22.65;9.90;;;12.40;99.90;;;;;;4839671;29;20046;-90
2021/12/31 12:37:03;;;;;;;21.80;11.43;;;12.40;99.90;;;;;;4839506;29;20073;-88
2021/12/31 12:39:30;;;;;;;22.02;11.48;;;12.30;99.90;;;;;;4824752;29;20489;-90
2021/12/31 12:41:55;;;;;;;27.13;13.98;;;12.30;99.90;;;;;;4823809;29;20053;-89
2021/12/31 12:44:21;;;;;;;26.50;11.98;;;12.30;99.90;;;;;;4839480;29;20535;-89
2021/12/31 12:46:58;;;;;;;28.45;12.15;;;12.40;99.90;;;;;;4824196;29;20046;-90